sensor_id;sensor_type;location;lat;lon;timestamp;pressure;altitude;pressure_sealevel;temperature;humidity
21185;BME280;18176;49.502;11.754;2022-10-22T00:02:16;96669.91;;;20.27;60.34
21185;BME280;18176;49.502;11.754;2022-10-22T00:06:16;96668.34;;;20.40;59.58
21185;BME280;18176;49.502;11.754;2022-10-22T00:10:17;96667.94;;;20.33;59.85
21185;BME280;18176;49.502;11.754;2022-10-22T00:14:19;96667.09;;;20.18;59.93
21185;BME280;18176;49.502;11.754;2022-10-22T00:18:19;96667.88;;;20.19;60.32
21185;BME280;18176;49.502;11.754;2022-10-22T00:22:20;96672.09;;;20.39;59.49
21185;BME280;18176;49.502;11.754;2022-10-22T00:26:20;96670.00;;;20.49;59.42
21185;BME280;18176;49.502;11.754;2022-10-22T00:30:23;96679.28;;;20.29;59.93
21185;BME280;18176;49.502;11.754;2022-10-22T00:34:26;96638.06;;;20.02;59.92
21185;BME280;18176;49.502;11.754;2022-10-22T00:38:26;96672.28;;;20.28;59.93
21185;BME280;18176;49.502;11.754;2022-10-22T00:42:27;96673.50;;;20.22;59.66
21185;BME280;18176;49.502;11.754;2022-10-22T00:46:31;96676.91;;;20.42;59.29
21185;BME280;18176;49.502;11.754;2022-10-22T00:50:34;96678.31;;;20.53;59.18
21185;BME280;18176;49.502;11.754;2022-10-22T00:54:35;96676.69;;;20.38;59.55
21185;BME280;18176;49.502;11.754;2022-10-22T00:58:43;96673.81;;;20.62;58.92
21185;BME280;18176;49.502;11.754;2022-10-22T01:02:48;96682.06;;;20.52;58.96
21185;BME280;18176;49.502;11.754;2022-10-22T01:06:50;96668.03;;;20.55;58.90
21185;BME280;18176;49.502;11.754;2022-10-22T01:11:05;96674.31;;;20.37;59.35
21185;BME280;18176;49.502;11.754;2022-10-22T01:15:18;96670.84;;;20.17;59.79
21185;BME280;18176;49.502;11.754;2022-10-22T01:19:41;96666.31;;;20.32;59.56
21185;BME280;18176;49.502;11.754;2022-10-22T01:24:15;96650.19;;;20.32;59.11
21185;BME280;18176;49.502;11.754;2022-10-22T01:32:33;96668.34;;;20.40;59.33
21185;BME280;18176;49.502;11.754;2022-10-22T01:36:37;96669.91;;;20.41;59.07
21185;BME280;18176;49.502;11.754;2022-10-22T01:40:40;96664.75;;;20.31;59.37
21185;BME280;18176;49.502;11.754;2022-10-22T01:44:41;96669.41;;;20.39;59.29
21185;BME280;18176;49.502;11.754;2022-10-22T01:49:06;96679.19;;;20.35;59.12
21185;BME280;18176;49.502;11.754;2022-10-22T01:53:20;96666.94;;;20.56;58.63
21185;BME280;18176;49.502;11.754;2022-10-22T01:57:33;96655.38;;;20.42;59.01
21185;BME280;18176;49.502;11.754;2022-10-22T02:01:46;96656.75;;;20.53;58.89
21185;BME280;18176;49.502;11.754;2022-10-22T02:05:55;96656.06;;;20.61;58.65
21185;BME280;18176;49.502;11.754;2022-10-22T02:09:59;96634.63;;;20.56;58.43
21185;BME280;18176;49.502;11.754;2022-10-22T02:14:04;96628.66;;;20.32;59.05
21185;BME280;18176;49.502;11.754;2022-10-22T02:18:08;96624.25;;;20.22;59.66
21185;BME280;18176;49.502;11.754;2022-10-22T02:22:12;96621.94;;;20.15;59.99
21185;BME280;18176;49.502;11.754;2022-10-22T02:26:26;96610.09;;;20.16;59.94
21185;BME280;18176;49.502;11.754;2022-10-22T02:30:27;96625.66;;;20.33;59.58
21185;BME280;18176;49.502;11.754;2022-10-22T02:34:30;96626.75;;;20.32;59.33
21185;BME280;18176;49.502;11.754;2022-10-22T02:38:35;96626.28;;;20.30;59.11
21185;BME280;18176;49.502;11.754;2022-10-22T02:42:38;96625.47;;;20.29;59.35
21185;BME280;18176;49.502;11.754;2022-10-22T02:46:41;96621.28;;;20.23;59.03
21185;BME280;18176;49.502;11.754;2022-10-22T02:50:42;96629.09;;;20.06;59.82
21185;BME280;18176;49.502;11.754;2022-10-22T02:54:45;96640.19;;;20.18;59.50
21185;BME280;18176;49.502;11.754;2022-10-22T02:58:45;96637.44;;;20.23;59.23
21185;BME280;18176;49.502;11.754;2022-10-22T03:02:45;96640.75;;;20.15;59.49
21185;BME280;18176;49.502;11.754;2022-10-22T03:06:45;96645.56;;;20.18;59.69
21185;BME280;18176;49.502;11.754;2022-10-22T03:10:48;96637.56;;;20.13;59.81
21185;BME280;18176;49.502;11.754;2022-10-22T03:14:48;96640.66;;;20.07;60.37
21185;BME280;18176;49.502;11.754;2022-10-22T03:18:48;96639.88;;;20.20;59.67
21185;BME280;18176;49.502;11.754;2022-10-22T03:22:48;96630.59;;;20.12;59.96
21185;BME280;18176;49.502;11.754;2022-10-22T03:26:52;96621.84;;;20.07;60.50
21185;BME280;18176;49.502;11.754;2022-10-22T03:30:52;96644.91;;;19.94;61.05
21185;BME280;18176;49.502;11.754;2022-10-22T03:34:52;96653.25;;;19.79;61.52
21185;BME280;18176;49.502;11.754;2022-10-22T03:38:52;96639.91;;;19.88;61.25
21185;BME280;18176;49.502;11.754;2022-10-22T03:42:55;96647.69;;;19.57;62.83
21185;BME280;18176;49.502;11.754;2022-10-22T03:46:57;96654.31;;;19.46;63.28
21185;BME280;18176;49.502;11.754;2022-10-22T03:50:59;96648.84;;;19.70;62.50
21185;BME280;18176;49.502;11.754;2022-10-22T03:54:59;96637.53;;;19.86;61.60
21185;BME280;18176;49.502;11.754;2022-10-22T03:59:02;96650.69;;;20.01;61.43
21185;BME280;18176;49.502;11.754;2022-10-22T04:03:03;96657.47;;;19.99;61.09
21185;BME280;18176;49.502;11.754;2022-10-22T04:07:04;96679.78;;;19.99;61.28
21185;BME280;18176;49.502;11.754;2022-10-22T04:11:04;96688.88;;;20.17;60.73
21185;BME280;18176;49.502;11.754;2022-10-22T04:15:08;96707.09;;;20.06;61.22
21185;BME280;18176;49.502;11.754;2022-10-22T04:19:09;96716.91;;;20.16;60.92
21185;BME280;18176;49.502;11.754;2022-10-22T04:23:10;96730.16;;;19.94;61.15
21185;BME280;18176;49.502;11.754;2022-10-22T04:27:11;96710.47;;;19.98;60.72
21185;BME280;18176;49.502;11.754;2022-10-22T04:31:16;96739.47;;;20.01;61.12
21185;BME280;18176;49.502;11.754;2022-10-22T04:35:17;96731.00;;;20.08;60.99
21185;BME280;18176;49.502;11.754;2022-10-22T04:39:17;96746.53;;;19.97;61.17
21185;BME280;18176;49.502;11.754;2022-10-22T04:43:17;96729.69;;;20.05;61.04
21185;BME280;18176;49.502;11.754;2022-10-22T04:47:20;96726.13;;;20.10;61.41
21185;BME280;18176;49.502;11.754;2022-10-22T04:51:22;96721.47;;;20.15;61.29
21185;BME280;18176;49.502;11.754;2022-10-22T04:55:23;96716.41;;;20.14;61.51
21185;BME280;18176;49.502;11.754;2022-10-22T04:59:23;96718.56;;;20.31;61.02
21185;BME280;18176;49.502;11.754;2022-10-22T05:03:26;96702.00;;;20.23;60.54
21185;BME280;18176;49.502;11.754;2022-10-22T05:07:27;96736.78;;;20.34;60.51
21185;BME280;18176;49.502;11.754;2022-10-22T05:11:32;96736.88;;;20.28;60.14
21185;BME280;18176;49.502;11.754;2022-10-22T05:15:32;96745.50;;;20.44;59.70
21185;BME280;18176;49.502;11.754;2022-10-22T05:19:35;96757.66;;;20.42;59.77
21185;BME280;18176;49.502;11.754;2022-10-22T05:23:36;96759.63;;;20.36;60.20
21185;BME280;18176;49.502;11.754;2022-10-22T05:27:36;96773.59;;;20.52;59.48
21185;BME280;18176;49.502;11.754;2022-10-22T05:31:37;96770.25;;;20.73;59.15
21185;BME280;18176;49.502;11.754;2022-10-22T05:35:40;96780.63;;;20.80;58.71
21185;BME280;18176;49.502;11.754;2022-10-22T05:39:43;96784.31;;;20.84;58.79
21185;BME280;18176;49.502;11.754;2022-10-22T05:43:43;96789.88;;;20.60;59.54
21185;BME280;18176;49.502;11.754;2022-10-22T05:47:43;96781.41;;;20.67;59.46
21185;BME280;18176;49.502;11.754;2022-10-22T05:51:46;96791.69;;;20.65;59.61
21185;BME280;18176;49.502;11.754;2022-10-22T05:55:46;96786.78;;;20.53;59.63
21185;BME280;18176;49.502;11.754;2022-10-22T05:59:46;96795.91;;;20.39;60.32
21185;BME280;18176;49.502;11.754;2022-10-22T06:03:47;96796.06;;;20.28;60.53
21185;BME280;18176;49.502;11.754;2022-10-22T06:07:51;96784.81;;;20.08;60.54
21185;BME280;18176;49.502;11.754;2022-10-22T06:11:51;96817.94;;;20.41;59.77
21185;BME280;18176;49.502;11.754;2022-10-22T06:15:51;96814.81;;;20.34;60.52
21185;BME280;18176;49.502;11.754;2022-10-22T06:19:52;96818.63;;;20.33;60.48
21185;BME280;18176;49.502;11.754;2022-10-22T06:23:55;96812.63;;;20.36;59.93
21185;BME280;18176;49.502;11.754;2022-10-22T06:27:56;96824.56;;;20.62;59.36
21185;BME280;18176;49.502;11.754;2022-10-22T06:31:56;96830.25;;;20.60;59.31
21185;BME280;18176;49.502;11.754;2022-10-22T06:36:04;96815.94;;;20.33;59.85
21185;BME280;18176;49.502;11.754;2022-10-22T06:40:09;96828.63;;;20.46;59.54
21185;BME280;18176;49.502;11.754;2022-10-22T06:44:14;96824.66;;;20.57;59.50
21185;BME280;18176;49.502;11.754;2022-10-22T06:48:15;96827.66;;;20.55;59.70
21185;BME280;18176;49.502;11.754;2022-10-22T06:52:16;96845.53;;;20.65;59.82
21185;BME280;18176;49.502;11.754;2022-10-22T06:56:21;96859.50;;;20.67;59.70
21185;BME280;18176;49.502;11.754;2022-10-22T07:00:22;96854.44;;;20.79;59.41
21185;BME280;18176;49.502;11.754;2022-10-22T07:04:22;96837.09;;;20.85;59.19
21185;BME280;18176;49.502;11.754;2022-10-22T07:08:22;96878.00;;;21.00;59.22
21185;BME280;18176;49.502;11.754;2022-10-22T07:12:25;96888.91;;;21.09;59.05
21185;BME280;18176;49.502;11.754;2022-10-22T07:16:26;96887.38;;;21.03;59.58
21185;BME280;18176;49.502;11.754;2022-10-22T07:20:28;96904.13;;;21.00;60.10
21185;BME280;18176;49.502;11.754;2022-10-22T07:24:29;96898.94;;;20.90;59.47
21185;BME280;18176;49.502;11.754;2022-10-22T07:28:32;96901.63;;;20.90;59.51
21185;BME280;18176;49.502;11.754;2022-10-22T07:32:34;96903.63;;;21.30;59.75
21185;BME280;18176;49.502;11.754;2022-10-22T07:36:34;96913.22;;;21.50;59.74
21185;BME280;18176;49.502;11.754;2022-10-22T07:40:35;96872.47;;;21.51;59.45
21185;BME280;18176;49.502;11.754;2022-10-22T07:44:38;96919.84;;;21.85;59.25
21185;BME280;18176;49.502;11.754;2022-10-22T07:48:38;96921.41;;;21.86;60.04
21185;BME280;18176;49.502;11.754;2022-10-22T07:52:38;96916.69;;;22.41;58.90
21185;BME280;18176;49.502;11.754;2022-10-22T07:56:39;96921.81;;;22.64;58.47
21185;BME280;18176;49.502;11.754;2022-10-22T08:00:43;96930.13;;;22.32;58.30
21185;BME280;18176;49.502;11.754;2022-10-22T08:04:43;96933.91;;;22.31;57.96
21185;BME280;18176;49.502;11.754;2022-10-22T08:08:44;96938.31;;;22.27;58.57
21185;BME280;18176;49.502;11.754;2022-10-22T08:12:44;96951.66;;;22.46;57.93
21185;BME280;18176;49.502;11.754;2022-10-22T08:16:47;96947.47;;;22.53;57.29
21185;BME280;18176;49.502;11.754;2022-10-22T08:20:47;96948.09;;;22.94;57.00
21185;BME280;18176;49.502;11.754;2022-10-22T08:24:47;96953.50;;;23.39;54.23
21185;BME280;18176;49.502;11.754;2022-10-22T08:28:48;96967.25;;;22.84;54.36
21185;BME280;18176;49.502;11.754;2022-10-22T08:32:50;96977.56;;;22.82;55.25
21185;BME280;18176;49.502;11.754;2022-10-22T08:36:51;96959.47;;;22.47;55.71
21185;BME280;18176;49.502;11.754;2022-10-22T08:40:53;96961.38;;;22.82;55.05
21185;BME280;18176;49.502;11.754;2022-10-22T08:45:08;96969.16;;;22.84;53.67
21185;BME280;18176;49.502;11.754;2022-10-22T08:49:20;96960.06;;;22.80;54.17
21185;BME280;18176;49.502;11.754;2022-10-22T08:53:30;96957.00;;;22.37;53.86
21185;BME280;18176;49.502;11.754;2022-10-22T08:57:49;96959.03;;;22.18;55.43
21185;BME280;18176;49.502;11.754;2022-10-22T09:01:53;96964.94;;;22.06;55.32
21185;BME280;18176;49.502;11.754;2022-10-22T09:06:04;96959.69;;;22.37;54.54
21185;BME280;18176;49.502;11.754;2022-10-22T09:10:10;96963.09;;;22.29;53.86
21185;BME280;18176;49.502;11.754;2022-10-22T09:14:15;96940.91;;;22.32;53.94
21185;BME280;18176;49.502;11.754;2022-10-22T09:18:32;96963.88;;;22.43;54.39
21185;BME280;18176;49.502;11.754;2022-10-22T09:22:43;96953.34;;;22.06;54.94
21185;BME280;18176;49.502;11.754;2022-10-22T09:26:47;96963.44;;;22.50;54.28
21185;BME280;18176;49.502;11.754;2022-10-22T09:30:47;96957.13;;;22.32;53.71
21185;BME280;18176;49.502;11.754;2022-10-22T09:34:49;96957.19;;;22.41;54.17
21185;BME280;18176;49.502;11.754;2022-10-22T09:38:58;96958.66;;;22.82;53.22
21185;BME280;18176;49.502;11.754;2022-10-22T09:42:58;96944.66;;;23.02;51.83
21185;BME280;18176;49.502;11.754;2022-10-22T09:46:59;96975.19;;;23.56;50.84
21185;BME280;18176;49.502;11.754;2022-10-22T09:51:16;96977.50;;;23.40;50.56
21185;BME280;18176;49.502;11.754;2022-10-22T09:55:20;96973.88;;;23.84;49.66
21185;BME280;18176;49.502;11.754;2022-10-22T09:59:31;96983.41;;;24.29;48.50
21185;BME280;18176;49.502;11.754;2022-10-22T10:03:32;96971.66;;;24.42;48.77
21185;BME280;18176;49.502;11.754;2022-10-22T10:07:35;97002.53;;;25.61;46.54
21185;BME280;18176;49.502;11.754;2022-10-22T10:11:45;97004.84;;;25.08;45.70
21185;BME280;18176;49.502;11.754;2022-10-22T10:15:55;96994.94;;;24.61;46.22
21185;BME280;18176;49.502;11.754;2022-10-22T10:20:14;97013.34;;;24.24;47.28
21185;BME280;18176;49.502;11.754;2022-10-22T10:24:27;97029.41;;;25.20;44.93
21185;BME280;18176;49.502;11.754;2022-10-22T10:28:55;97015.31;;;25.35;44.96
21185;BME280;18176;49.502;11.754;2022-10-22T10:33:12;97028.88;;;25.52;44.78
21185;BME280;18176;49.502;11.754;2022-10-22T10:37:21;97022.03;;;25.12;45.27
21185;BME280;18176;49.502;11.754;2022-10-22T10:41:34;97008.88;;;25.65;44.22
21185;BME280;18176;49.502;11.754;2022-10-22T10:45:50;97027.97;;;25.95;43.97
21185;BME280;18176;49.502;11.754;2022-10-22T10:50:13;97029.63;;;25.78;44.06
21185;BME280;18176;49.502;11.754;2022-10-22T10:54:33;97035.75;;;25.41;44.81
21185;BME280;18176;49.502;11.754;2022-10-22T10:59:08;97028.94;;;25.82;43.92
21185;BME280;18176;49.502;11.754;2022-10-22T11:04:05;96996.22;;;26.45;42.51
21185;BME280;18176;49.502;11.754;2022-10-22T11:08:16;97014.13;;;26.75;41.75
21185;BME280;18176;49.502;11.754;2022-10-22T11:12:25;97019.84;;;26.24;42.32
21185;BME280;18176;49.502;11.754;2022-10-22T11:16:33;97026.88;;;24.98;45.39
21185;BME280;18176;49.502;11.754;2022-10-22T11:20:49;97029.72;;;24.76;45.95
21185;BME280;18176;49.502;11.754;2022-10-22T11:24:56;97023.63;;;25.47;44.71
21185;BME280;18176;49.502;11.754;2022-10-22T11:29:00;97008.59;;;25.58;44.26
21185;BME280;18176;49.502;11.754;2022-10-22T11:33:09;97016.59;;;27.99;41.34
21185;BME280;18176;49.502;11.754;2022-10-22T11:37:14;97010.19;;;28.80;38.77
21185;BME280;18176;49.502;11.754;2022-10-22T11:41:18;97021.88;;;27.83;40.00
21185;BME280;18176;49.502;11.754;2022-10-22T11:45:30;97021.94;;;26.97;40.88
21185;BME280;18176;49.502;11.754;2022-10-22T11:49:42;97022.44;;;27.77;39.92
21185;BME280;18176;49.502;11.754;2022-10-22T11:53:45;97021.53;;;27.73;38.93
21185;BME280;18176;49.502;11.754;2022-10-22T11:57:58;97021.59;;;27.52;39.60
21185;BME280;18176;49.502;11.754;2022-10-22T12:01:59;97015.25;;;27.28;40.23
21185;BME280;18176;49.502;11.754;2022-10-22T12:06:17;97011.31;;;27.04;41.12
21185;BME280;18176;49.502;11.754;2022-10-22T12:10:26;97008.66;;;27.17;40.92
21185;BME280;18176;49.502;11.754;2022-10-22T12:14:32;97009.78;;;28.17;38.79
21185;BME280;18176;49.502;11.754;2022-10-22T12:18:40;97007.34;;;29.44;36.55
21185;BME280;18176;49.502;11.754;2022-10-22T12:22:42;97005.34;;;29.01;37.61
21185;BME280;18176;49.502;11.754;2022-10-22T12:26:45;96998.25;;;28.84;38.14
21185;BME280;18176;49.502;11.754;2022-10-22T12:30:46;96996.59;;;28.43;39.14
21185;BME280;18176;49.502;11.754;2022-10-22T12:34:49;96986.00;;;30.93;35.28
21185;BME280;18176;49.502;11.754;2022-10-22T12:38:50;96993.63;;;32.55;32.97
21185;BME280;18176;49.502;11.754;2022-10-22T12:42:56;96997.34;;;32.70;31.86
21185;BME280;18176;49.502;11.754;2022-10-22T12:46:57;97001.84;;;31.83;32.23
21185;BME280;18176;49.502;11.754;2022-10-22T12:51:00;96995.19;;;30.85;33.19
21185;BME280;18176;49.502;11.754;2022-10-22T12:55:05;97004.00;;;29.50;35.11
21185;BME280;18176;49.502;11.754;2022-10-22T12:59:19;96999.97;;;28.77;36.22
21185;BME280;18176;49.502;11.754;2022-10-22T13:03:28;97000.72;;;29.45;34.43
21185;BME280;18176;49.502;11.754;2022-10-22T13:07:39;96998.09;;;29.48;35.06
21185;BME280;18176;49.502;11.754;2022-10-22T13:11:48;96975.72;;;29.15;35.71
21185;BME280;18176;49.502;11.754;2022-10-22T13:15:51;96983.63;;;29.91;34.06
21185;BME280;18176;49.502;11.754;2022-10-22T13:20:00;96987.16;;;29.92;34.49
21185;BME280;18176;49.502;11.754;2022-10-22T13:24:18;96974.28;;;28.78;35.53
21185;BME280;18176;49.502;11.754;2022-10-22T13:28:21;96997.88;;;28.86;35.69
21185;BME280;18176;49.502;11.754;2022-10-22T13:32:31;96987.16;;;28.65;36.03
21185;BME280;18176;49.502;11.754;2022-10-22T13:36:32;96974.47;;;28.21;36.28
21185;BME280;18176;49.502;11.754;2022-10-22T13:40:32;96976.38;;;28.44;35.44
21185;BME280;18176;49.502;11.754;2022-10-22T13:44:33;96976.88;;;29.14;34.78
21185;BME280;18176;49.502;11.754;2022-10-22T13:48:36;96999.66;;;29.34;34.07
21185;BME280;18176;49.502;11.754;2022-10-22T13:52:40;96996.41;;;29.16;34.19
21185;BME280;18176;49.502;11.754;2022-10-22T13:56:41;96998.78;;;28.90;34.29
21185;BME280;18176;49.502;11.754;2022-10-22T14:00:44;96984.34;;;28.37;34.97
21185;BME280;18176;49.502;11.754;2022-10-22T14:04:48;97002.03;;;27.95;35.64
21185;BME280;18176;49.502;11.754;2022-10-22T14:08:55;96993.06;;;28.67;35.28
21185;BME280;18176;49.502;11.754;2022-10-22T14:12:55;97006.81;;;28.71;35.20
21185;BME280;18176;49.502;11.754;2022-10-22T14:16:55;97006.34;;;27.96;36.66
21185;BME280;18176;49.502;11.754;2022-10-22T14:21:00;97001.63;;;28.05;37.25
21185;BME280;18176;49.502;11.754;2022-10-22T14:25:04;96997.00;;;28.82;36.01
21185;BME280;18176;49.502;11.754;2022-10-22T14:29:05;96997.16;;;28.61;35.95
21185;BME280;18176;49.502;11.754;2022-10-22T14:33:12;97005.72;;;29.15;34.82
21185;BME280;18176;49.502;11.754;2022-10-22T14:37:19;97012.47;;;29.61;33.70
21185;BME280;18176;49.502;11.754;2022-10-22T14:41:23;97014.72;;;28.76;35.06
21185;BME280;18176;49.502;11.754;2022-10-22T14:45:25;97012.59;;;29.21;34.33
21185;BME280;18176;49.502;11.754;2022-10-22T14:49:26;97002.94;;;28.60;35.15
21185;BME280;18176;49.502;11.754;2022-10-22T14:53:29;97010.66;;;29.65;33.63
21185;BME280;18176;49.502;11.754;2022-10-22T14:57:30;96998.09;;;28.41;35.54
21185;BME280;18176;49.502;11.754;2022-10-22T15:01:30;97006.47;;;28.60;35.85
21185;BME280;18176;49.502;11.754;2022-10-22T15:05:31;97014.34;;;28.13;36.55
21185;BME280;18176;49.502;11.754;2022-10-22T15:09:35;97003.53;;;28.17;36.61
21185;BME280;18176;49.502;11.754;2022-10-22T15:13:35;97009.31;;;28.51;36.02
21185;BME280;18176;49.502;11.754;2022-10-22T15:17:35;97017.28;;;28.69;35.74
21185;BME280;18176;49.502;11.754;2022-10-22T15:21:36;97017.16;;;28.29;36.19
21185;BME280;18176;49.502;11.754;2022-10-22T15:25:42;97023.41;;;28.05;36.92
21185;BME280;18176;49.502;11.754;2022-10-22T15:29:42;97031.38;;;28.10;37.01
21185;BME280;18176;49.502;11.754;2022-10-22T15:33:43;97023.88;;;28.19;36.53
21185;BME280;18176;49.502;11.754;2022-10-22T15:37:43;97032.72;;;28.04;37.38
21185;BME280;18176;49.502;11.754;2022-10-22T15:41:47;97027.34;;;27.39;38.12
21185;BME280;18176;49.502;11.754;2022-10-22T15:46:08;97039.31;;;26.84;39.05
21185;BME280;18176;49.502;11.754;2022-10-22T15:50:09;97049.00;;;26.65;39.18
21185;BME280;18176;49.502;11.754;2022-10-22T15:54:13;97048.16;;;26.52;39.52
21185;BME280;18176;49.502;11.754;2022-10-22T15:58:16;97058.00;;;26.36;39.91
21185;BME280;18176;49.502;11.754;2022-10-22T16:02:17;97053.06;;;25.83;40.53
21185;BME280;18176;49.502;11.754;2022-10-22T16:06:17;97054.88;;;25.53;41.87
21185;BME280;18176;49.502;11.754;2022-10-22T16:10:17;97075.03;;;25.18;42.91
21185;BME280;18176;49.502;11.754;2022-10-22T16:14:22;97073.19;;;23.84;45.61
21185;BME280;18176;49.502;11.754;2022-10-22T16:18:22;97074.41;;;23.69;46.60
21185;BME280;18176;49.502;11.754;2022-10-22T16:22:23;97084.69;;;23.36;47.50
21185;BME280;18176;49.502;11.754;2022-10-22T16:26:23;97090.13;;;23.67;47.24
21185;BME280;18176;49.502;11.754;2022-10-22T16:30:26;97082.00;;;23.67;47.03
21185;BME280;18176;49.502;11.754;2022-10-22T16:34:26;97100.97;;;23.67;47.44
21185;BME280;18176;49.502;11.754;2022-10-22T16:38:27;97104.41;;;23.59;47.83
21185;BME280;18176;49.502;11.754;2022-10-22T16:42:27;97121.63;;;23.63;47.94
21185;BME280;18176;49.502;11.754;2022-10-22T16:46:31;97110.94;;;23.36;48.61
21185;BME280;18176;49.502;11.754;2022-10-22T16:50:37;97093.34;;;22.89;49.09
21185;BME280;18176;49.502;11.754;2022-10-22T16:54:38;97149.31;;;22.88;49.47
21185;BME280;18176;49.502;11.754;2022-10-22T16:58:42;97131.09;;;22.53;50.61
21185;BME280;18176;49.502;11.754;2022-10-22T17:02:50;97133.69;;;22.31;51.40
21185;BME280;18176;49.502;11.754;2022-10-22T17:06:52;97119.66;;;22.02;51.57
21185;BME280;18176;49.502;11.754;2022-10-22T17:10:52;97129.06;;;21.91;52.61
21185;BME280;18176;49.502;11.754;2022-10-22T17:14:52;97152.97;;;21.79;53.22
21185;BME280;18176;49.502;11.754;2022-10-22T17:18:56;97155.50;;;21.56;53.71
21185;BME280;18176;49.502;11.754;2022-10-22T17:22:56;97149.00;;;21.57;53.83
21185;BME280;18176;49.502;11.754;2022-10-22T17:26:56;97150.06;;;21.43;54.32
21185;BME280;18176;49.502;11.754;2022-10-22T17:31:05;97152.75;;;21.24;54.06
21185;BME280;18176;49.502;11.754;2022-10-22T17:35:09;97175.63;;;21.08;54.89
21185;BME280;18176;49.502;11.754;2022-10-22T17:39:15;97169.31;;;20.94;55.08
21185;BME280;18176;49.502;11.754;2022-10-22T17:43:16;97163.03;;;20.80;55.51
21185;BME280;18176;49.502;11.754;2022-10-22T17:47:17;97179.09;;;20.66;56.18
21185;BME280;18176;49.502;11.754;2022-10-22T17:51:23;97169.75;;;20.59;56.23
21185;BME280;18176;49.502;11.754;2022-10-22T17:55:23;97173.06;;;20.56;56.00
21185;BME280;18176;49.502;11.754;2022-10-22T17:59:25;97134.66;;;20.21;56.63
21185;BME280;18176;49.502;11.754;2022-10-22T18:03:25;97165.09;;;20.17;58.02
21185;BME280;18176;49.502;11.754;2022-10-22T18:07:28;97177.81;;;20.11;58.72
21185;BME280;18176;49.502;11.754;2022-10-22T18:11:28;97158.59;;;19.94;58.17
21185;BME280;18176;49.502;11.754;2022-10-22T18:15:30;97161.94;;;19.81;58.12
21185;BME280;18176;49.502;11.754;2022-10-22T18:19:32;97159.72;;;19.59;58.21
21185;BME280;18176;49.502;11.754;2022-10-22T18:23:35;97156.16;;;19.64;58.29
21185;BME280;18176;49.502;11.754;2022-10-22T18:27:35;97167.03;;;19.54;57.86
21185;BME280;18176;49.502;11.754;2022-10-22T18:31:36;97188.50;;;19.59;57.98
21185;BME280;18176;49.502;11.754;2022-10-22T18:35:36;97196.13;;;19.42;58.93
21185;BME280;18176;49.502;11.754;2022-10-22T18:39:40;97196.69;;;19.39;58.60
21185;BME280;18176;49.502;11.754;2022-10-22T18:43:40;97197.81;;;19.23;58.77
21185;BME280;18176;49.502;11.754;2022-10-22T18:47:41;97204.84;;;19.19;59.04
21185;BME280;18176;49.502;11.754;2022-10-22T18:51:41;97218.28;;;19.19;58.78
21185;BME280;18176;49.502;11.754;2022-10-22T18:55:44;97207.56;;;19.09;59.13
21185;BME280;18176;49.502;11.754;2022-10-22T18:59:44;97212.94;;;19.09;58.54
21185;BME280;18176;49.502;11.754;2022-10-22T19:03:44;97206.56;;;19.00;59.14
21185;BME280;18176;49.502;11.754;2022-10-22T19:07:45;97204.94;;;19.04;58.77
21185;BME280;18176;49.502;11.754;2022-10-22T19:11:47;97216.25;;;18.90;59.00
21185;BME280;18176;49.502;11.754;2022-10-22T19:15:48;97216.88;;;18.77;59.33
21185;BME280;18176;49.502;11.754;2022-10-22T19:19:48;97217.38;;;18.84;58.79
21185;BME280;18176;49.502;11.754;2022-10-22T19:23:48;97213.97;;;18.69;58.75
21185;BME280;18176;49.502;11.754;2022-10-22T19:27:51;97222.84;;;18.54;59.06
21185;BME280;18176;49.502;11.754;2022-10-22T19:31:51;97226.88;;;18.57;59.19
21185;BME280;18176;49.502;11.754;2022-10-22T19:35:52;97212.16;;;18.24;59.26
21185;BME280;18176;49.502;11.754;2022-10-22T19:39:52;97203.34;;;18.13;59.33
21185;BME280;18176;49.502;11.754;2022-10-22T19:43:56;97217.53;;;18.24;59.46
21185;BME280;18176;49.502;11.754;2022-10-22T19:47:57;97211.63;;;18.22;59.22
21185;BME280;18176;49.502;11.754;2022-10-22T19:51:57;97235.25;;;18.20;59.25
21185;BME280;18176;49.502;11.754;2022-10-22T19:55:58;97239.94;;;17.07;62.70
21185;BME280;18176;49.502;11.754;2022-10-22T20:00:01;97256.03;;;17.17;62.86
21185;BME280;18176;49.502;11.754;2022-10-22T20:04:06;97240.56;;;17.44;61.03
21185;BME280;18176;49.502;11.754;2022-10-22T20:08:06;97235.69;;;17.21;61.24
21185;BME280;18176;49.502;11.754;2022-10-22T20:12:07;97257.69;;;17.33;61.58
21185;BME280;18176;49.502;11.754;2022-10-22T20:16:10;97237.31;;;17.27;61.13
21185;BME280;18176;49.502;11.754;2022-10-22T20:20:10;97254.50;;;17.46;60.73
21185;BME280;18176;49.502;11.754;2022-10-22T20:24:13;97249.41;;;17.40;60.63
21185;BME280;18176;49.502;11.754;2022-10-22T20:28:14;97229.56;;;17.31;60.55
21185;BME280;18176;49.502;11.754;2022-10-22T20:32:17;97242.72;;;17.42;60.04
21185;BME280;18176;49.502;11.754;2022-10-22T20:36:21;97209.69;;;17.12;60.00
21185;BME280;18176;49.502;11.754;2022-10-22T20:40:23;97249.66;;;17.43;60.03
21185;BME280;18176;49.502;11.754;2022-10-22T20:44:24;97250.22;;;17.40;60.16
21185;BME280;18176;49.502;11.754;2022-10-22T20:48:27;97247.53;;;17.35;59.86
21185;BME280;18176;49.502;11.754;2022-10-22T20:52:28;97233.03;;;17.21;59.92
21185;BME280;18176;49.502;11.754;2022-10-22T20:56:28;97241.31;;;17.15;60.28
21185;BME280;18176;49.502;11.754;2022-10-22T21:00:29;97199.19;;;16.95;59.47
21185;BME280;18176;49.502;11.754;2022-10-22T21:04:34;97243.72;;;17.21;60.14
21185;BME280;18176;49.502;11.754;2022-10-22T21:08:39;97247.72;;;17.14;60.37
21185;BME280;18176;49.502;11.754;2022-10-22T21:12:39;97237.22;;;16.92;60.22
21185;BME280;18176;49.502;11.754;2022-10-22T21:16:42;97238.75;;;16.83;60.02
21185;BME280;18176;49.502;11.754;2022-10-22T21:20:45;97243.13;;;16.94;60.02